sensor_id;sensor_type;location;lat;lon;timestamp;temperature;humidity
9820;DHT22;4949;48.482;9.206;2023-12-28T00:01:02;4.10;91.40
9820;DHT22;4949;48.482;9.206;2023-12-28T00:06:06;4.20;91.00
9820;DHT22;4949;48.482;9.206;2023-12-28T00:11:07;4.20;91.20
9820;DHT22;4949;48.482;9.206;2023-12-28T00:16:08;4.20;91.40
9820;DHT22;4949;48.482;9.206;2023-12-28T00:21:08;4.50;91.60
9820;DHT22;4949;48.482;9.206;2023-12-28T00:26:09;4.20;91.70
9820;DHT22;4949;48.482;9.206;2023-12-28T00:31:10;4.20;91.60
9820;DHT22;4949;48.482;9.206;2023-12-28T00:36:13;4.10;91.40
9820;DHT22;4949;48.482;9.206;2023-12-28T00:41:13;4.00;92.20
9820;DHT22;4949;48.482;9.206;2023-12-28T00:46:14;3.90;92.50
9820;DHT22;4949;48.482;9.206;2023-12-28T00:51:17;4.20;92.90
9820;DHT22;4949;48.482;9.206;2023-12-28T00:56:18;4.30;92.70
9820;DHT22;4949;48.482;9.206;2023-12-28T01:01:24;4.00;92.20
9820;DHT22;4949;48.482;9.206;2023-12-28T01:06:24;4.00;92.10
9820;DHT22;4949;48.482;9.206;2023-12-28T01:11:29;3.80;92.20
9820;DHT22;4949;48.482;9.206;2023-12-28T01:16:32;4.00;91.80
9820;DHT22;4949;48.482;9.206;2023-12-28T01:21:36;4.20;92.10
9820;DHT22;4949;48.482;9.206;2023-12-28T01:26:39;3.90;92.10
9820;DHT22;4949;48.482;9.206;2023-12-28T01:31:40;3.90;92.20
9820;DHT22;4949;48.482;9.206;2023-12-28T01:36:44;4.00;91.60
9820;DHT22;4949;48.482;9.206;2023-12-28T01:41:47;4.10;91.00
9820;DHT22;4949;48.482;9.206;2023-12-28T01:46:51;4.10;91.00
9820;DHT22;4949;48.482;9.206;2023-12-28T01:51:56;4.10;91.00
9820;DHT22;4949;48.482;9.206;2023-12-28T01:56:58;4.10;91.10
9820;DHT22;4949;48.482;9.206;2023-12-28T02:02:03;4.10;90.90
9820;DHT22;4949;48.482;9.206;2023-12-28T02:07:06;4.50;90.70
9820;DHT22;4949;48.482;9.206;2023-12-28T02:12:10;4.20;90.30
9820;DHT22;4949;48.482;9.206;2023-12-28T02:17:16;4.10;90.30
9820;DHT22;4949;48.482;9.206;2023-12-28T02:22:21;4.10;90.50
9820;DHT22;4949;48.482;9.206;2023-12-28T02:27:24;4.10;90.70
9820;DHT22;4949;48.482;9.206;2023-12-28T02:37:39;4.10;90.10
9820;DHT22;4949;48.482;9.206;2023-12-28T02:42:42;4.10;90.20
9820;DHT22;4949;48.482;9.206;2023-12-28T02:47:46;4.10;90.00
9820;DHT22;4949;48.482;9.206;2023-12-28T02:52:49;3.80;88.50
9820;DHT22;4949;48.482;9.206;2023-12-28T02:57:55;4.40;89.30
9820;DHT22;4949;48.482;9.206;2023-12-28T03:02:56;4.30;88.90
9820;DHT22;4949;48.482;9.206;2023-12-28T03:07:57;4.40;88.30
9820;DHT22;4949;48.482;9.206;2023-12-28T03:13:01;4.80;87.60
9820;DHT22;4949;48.482;9.206;2023-12-28T03:18:04;4.60;88.00
9820;DHT22;4949;48.482;9.206;2023-12-28T03:23:05;4.70;87.00
9820;DHT22;4949;48.482;9.206;2023-12-28T03:28:05;4.70;86.60
9820;DHT22;4949;48.482;9.206;2023-12-28T03:33:06;4.70;86.10
9820;DHT22;4949;48.482;9.206;2023-12-28T03:38:07;4.80;86.10
9820;DHT22;4949;48.482;9.206;2023-12-28T03:43:08;5.30;82.60
9820;DHT22;4949;48.482;9.206;2023-12-28T03:48:08;5.30;80.90
9820;DHT22;4949;48.482;9.206;2023-12-28T03:53:11;6.20;79.30
9820;DHT22;4949;48.482;9.206;2023-12-28T03:58:12;5.90;78.40
9820;DHT22;4949;48.482;9.206;2023-12-28T04:03:13;6.10;79.40
9820;DHT22;4949;48.482;9.206;2023-12-28T04:08:14;6.20;80.10
9820;DHT22;4949;48.482;9.206;2023-12-28T04:13:17;5.80;80.40
9820;DHT22;4949;48.482;9.206;2023-12-28T04:18:18;5.70;81.20
9820;DHT22;4949;48.482;9.206;2023-12-28T04:23:18;5.70;81.20
9820;DHT22;4949;48.482;9.206;2023-12-28T04:28:19;6.10;82.00
9820;DHT22;4949;48.482;9.206;2023-12-28T04:33:22;5.90;82.00
9820;DHT22;4949;48.482;9.206;2023-12-28T04:38:23;5.60;81.80
9820;DHT22;4949;48.482;9.206;2023-12-28T04:43:23;5.60;82.20
9820;DHT22;4949;48.482;9.206;2023-12-28T04:48:24;6.00;81.90
9820;DHT22;4949;48.482;9.206;2023-12-28T04:53:26;6.20;80.00
9820;DHT22;4949;48.482;9.206;2023-12-28T04:58:27;6.20;78.80
9820;DHT22;4949;48.482;9.206;2023-12-28T05:03:27;6.60;75.20
9820;DHT22;4949;48.482;9.206;2023-12-28T05:08:28;7.00;74.80
9820;DHT22;4949;48.482;9.206;2023-12-28T05:13:31;7.40;72.20
9820;DHT22;4949;48.482;9.206;2023-12-28T05:18:34;8.00;71.00
9820;DHT22;4949;48.482;9.206;2023-12-28T05:23:35;8.40;70.30
9820;DHT22;4949;48.482;9.206;2023-12-28T05:28:36;8.50;71.10
9820;DHT22;4949;48.482;9.206;2023-12-28T05:33:37;8.40;71.70
9820;DHT22;4949;48.482;9.206;2023-12-28T05:38:37;8.70;72.90
9820;DHT22;4949;48.482;9.206;2023-12-28T05:43:38;8.20;73.20
9820;DHT22;4949;48.482;9.206;2023-12-28T05:48:42;8.10;74.50
9820;DHT22;4949;48.482;9.206;2023-12-28T05:53:42;8.10;74.20
9820;DHT22;4949;48.482;9.206;2023-12-28T05:58:46;8.00;74.30
9820;DHT22;4949;48.482;9.206;2023-12-28T06:03:49;8.00;75.10
9820;DHT22;4949;48.482;9.206;2023-12-28T06:08:50;7.90;75.80
9820;DHT22;4949;48.482;9.206;2023-12-28T06:13:51;7.80;76.30
9820;DHT22;4949;48.482;9.206;2023-12-28T06:18:54;7.70;77.30
9820;DHT22;4949;48.482;9.206;2023-12-28T06:23:55;7.90;80.90
9820;DHT22;4949;48.482;9.206;2023-12-28T06:28:56;8.60;83.50
9820;DHT22;4949;48.482;9.206;2023-12-28T06:33:56;8.60;83.60
9820;DHT22;4949;48.482;9.206;2023-12-28T06:38:58;8.90;83.30
9820;DHT22;4949;48.482;9.206;2023-12-28T06:43:59;9.70;83.00
9820;DHT22;4949;48.482;9.206;2023-12-28T06:48:59;9.60;81.90
9820;DHT22;4949;48.482;9.206;2023-12-28T06:54:00;9.80;81.70
9820;DHT22;4949;48.482;9.206;2023-12-28T06:59:04;10.10;81.40
9820;DHT22;4949;48.482;9.206;2023-12-28T07:04:07;10.20;80.90
9820;DHT22;4949;48.482;9.206;2023-12-28T07:09:08;10.00;80.40
9820;DHT22;4949;48.482;9.206;2023-12-28T07:14:13;10.00;80.60
9820;DHT22;4949;48.482;9.206;2023-12-28T07:19:16;10.00;80.20
9820;DHT22;4949;48.482;9.206;2023-12-28T07:24:17;10.10;80.30
9820;DHT22;4949;48.482;9.206;2023-12-28T07:29:18;10.20;80.00
9820;DHT22;4949;48.482;9.206;2023-12-28T07:34:18;10.20;80.30
9820;DHT22;4949;48.482;9.206;2023-12-28T07:39:19;10.10;80.20
9820;DHT22;4949;48.482;9.206;2023-12-28T07:44:20;10.10;80.00
9820;DHT22;4949;48.482;9.206;2023-12-28T07:49:23;10.20;79.80
9820;DHT22;4949;48.482;9.206;2023-12-28T07:54:23;10.30;78.80
9820;DHT22;4949;48.482;9.206;2023-12-28T07:59:24;10.40;78.00
9820;DHT22;4949;48.482;9.206;2023-12-28T08:04:25;10.40;77.80
9820;DHT22;4949;48.482;9.206;2023-12-28T08:09:25;10.50;77.50
9820;DHT22;4949;48.482;9.206;2023-12-28T08:14:27;10.50;77.30
9820;DHT22;4949;48.482;9.206;2023-12-28T08:19:30;10.20;76.40
9820;DHT22;4949;48.482;9.206;2023-12-28T08:24:31;10.70;77.40
9820;DHT22;4949;48.482;9.206;2023-12-28T08:29:34;10.60;77.10
9820;DHT22;4949;48.482;9.206;2023-12-28T08:34:35;10.60;78.90
9820;DHT22;4949;48.482;9.206;2023-12-28T08:39:36;10.90;78.80
9820;DHT22;4949;48.482;9.206;2023-12-28T08:44:39;10.50;79.30
9820;DHT22;4949;48.482;9.206;2023-12-28T08:49:40;10.50;80.30
9820;DHT22;4949;48.482;9.206;2023-12-28T08:54:41;10.50;81.10
9820;DHT22;4949;48.482;9.206;2023-12-28T08:59:44;10.50;82.70
9820;DHT22;4949;48.482;9.206;2023-12-28T09:04:47;10.70;82.50
9820;DHT22;4949;48.482;9.206;2023-12-28T09:09:48;10.40;81.50
9820;DHT22;4949;48.482;9.206;2023-12-28T09:14:49;10.40;81.50
9820;DHT22;4949;48.482;9.206;2023-12-28T09:19:52;10.40;81.60
9820;DHT22;4949;48.482;9.206;2023-12-28T09:24:53;10.50;81.70
9820;DHT22;4949;48.482;9.206;2023-12-28T09:29:54;10.80;81.80
9820;DHT22;4949;48.482;9.206;2023-12-28T09:34:57;10.40;81.00
9820;DHT22;4949;48.482;9.206;2023-12-28T09:39:58;10.40;80.60
9820;DHT22;4949;48.482;9.206;2023-12-28T09:44:59;10.40;81.10
9820;DHT22;4949;48.482;9.206;2023-12-28T09:50:02;10.50;82.20
9820;DHT22;4949;48.482;9.206;2023-12-28T09:55:03;10.50;82.60
9820;DHT22;4949;48.482;9.206;2023-12-28T10:00:05;10.50;82.40
9820;DHT22;4949;48.482;9.206;2023-12-28T10:05:07;10.50;82.20
9820;DHT22;4949;48.482;9.206;2023-12-28T10:10:11;10.60;82.20
9820;DHT22;4949;48.482;9.206;2023-12-28T10:15:14;10.60;79.80
9820;DHT22;4949;48.482;9.206;2023-12-28T10:20:14;10.90;79.60
9820;DHT22;4949;48.482;9.206;2023-12-28T10:25:15;10.80;77.40
9820;DHT22;4949;48.482;9.206;2023-12-28T10:30:20;10.90;77.70
9820;DHT22;4949;48.482;9.206;2023-12-28T10:35:21;11.00;77.90
9820;DHT22;4949;48.482;9.206;2023-12-28T10:40:22;11.00;78.00
9820;DHT22;4949;48.482;9.206;2023-12-28T10:45:26;11.10;77.90
9820;DHT22;4949;48.482;9.206;2023-12-28T10:50:30;11.30;77.50
9820;DHT22;4949;48.482;9.206;2023-12-28T10:55:53;11.30;78.00
9820;DHT22;4949;48.482;9.206;2023-12-28T11:01:09;11.40;79.40
9820;DHT22;4949;48.482;9.206;2023-12-28T11:06:13;11.60;79.90
9820;DHT22;4949;48.482;9.206;2023-12-28T11:11:16;11.50;80.40
9820;DHT22;4949;48.482;9.206;2023-12-28T11:16:20;11.70;81.90
9820;DHT22;4949;48.482;9.206;2023-12-28T11:21:24;11.60;82.80
9820;DHT22;4949;48.482;9.206;2023-12-28T11:26:26;11.70;83.00
9820;DHT22;4949;48.482;9.206;2023-12-28T11:31:32;11.80;84.00
9820;DHT22;4949;48.482;9.206;2023-12-28T11:36:44;11.90;83.70
9820;DHT22;4949;48.482;9.206;2023-12-28T11:41:49;12.00;83.50
9820;DHT22;4949;48.482;9.206;2023-12-28T11:46:52;12.40;84.30
9820;DHT22;4949;48.482;9.206;2023-12-28T11:51:57;12.10;84.10
9820;DHT22;4949;48.482;9.206;2023-12-28T11:57:00;12.20;83.90
9820;DHT22;4949;48.482;9.206;2023-12-28T12:02:03;12.30;83.90
9820;DHT22;4949;48.482;9.206;2023-12-28T12:07:07;12.30;84.20
9820;DHT22;4949;48.482;9.206;2023-12-28T12:12:08;12.70;84.30
9820;DHT22;4949;48.482;9.206;2023-12-28T12:17:09;12.30;84.80
9820;DHT22;4949;48.482;9.206;2023-12-28T12:22:10;12.30;85.60
9820;DHT22;4949;48.482;9.206;2023-12-28T12:27:11;12.40;86.30
9820;DHT22;4949;48.482;9.206;2023-12-28T12:32:12;12.30;86.80
9820;DHT22;4949;48.482;9.206;2023-12-28T12:37:17;12.30;87.40
9820;DHT22;4949;48.482;9.206;2023-12-28T12:42:18;12.20;87.70
9820;DHT22;4949;48.482;9.206;2023-12-28T12:47:19;12.30;87.50
9820;DHT22;4949;48.482;9.206;2023-12-28T12:52:20;12.30;87.70
9820;DHT22;4949;48.482;9.206;2023-12-28T12:57:26;12.20;87.70
9820;DHT22;4949;48.482;9.206;2023-12-28T13:02:27;12.20;87.90
9820;DHT22;4949;48.482;9.206;2023-12-28T13:07:28;12.20;87.70
9820;DHT22;4949;48.482;9.206;2023-12-28T13:12:31;12.20;87.60
9820;DHT22;4949;48.482;9.206;2023-12-28T13:17:32;12.20;89.30
9820;DHT22;4949;48.482;9.206;2023-12-28T13:22:33;12.20;89.40
9820;DHT22;4949;48.482;9.206;2023-12-28T13:27:34;12.10;89.30
9820;DHT22;4949;48.482;9.206;2023-12-28T13:32:37;12.20;89.10
9820;DHT22;4949;48.482;9.206;2023-12-28T13:37:38;12.30;90.00
9820;DHT22;4949;48.482;9.206;2023-12-28T13:42:39;12.20;90.70
9820;DHT22;4949;48.482;9.206;2023-12-28T13:47:39;12.10;91.40
9820;DHT22;4949;48.482;9.206;2023-12-28T13:52:40;12.10;91.90
9820;DHT22;4949;48.482;9.206;2023-12-28T13:57:41;12.00;92.40
9820;DHT22;4949;48.482;9.206;2023-12-28T14:02:43;12.00;93.50
9820;DHT22;4949;48.482;9.206;2023-12-28T14:07:46;11.90;93.70
9820;DHT22;4949;48.482;9.206;2023-12-28T14:12:47;11.90;93.60
9820;DHT22;4949;48.482;9.206;2023-12-28T14:17:48;11.90;93.50
9820;DHT22;4949;48.482;9.206;2023-12-28T14:22:49;11.80;93.70
9820;DHT22;4949;48.482;9.206;2023-12-28T14:27:50;11.70;93.20
9820;DHT22;4949;48.482;9.206;2023-12-28T14:32:54;11.40;92.70
9820;DHT22;4949;48.482;9.206;2023-12-28T14:37:55;11.50;92.30
9820;DHT22;4949;48.482;9.206;2023-12-28T14:42:58;11.50;92.10
9820;DHT22;4949;48.482;9.206;2023-12-28T14:48:01;11.30;92.10
9820;DHT22;4949;48.482;9.206;2023-12-28T14:53:02;11.40;91.70
9820;DHT22;4949;48.482;9.206;2023-12-28T14:58:06;11.40;90.90
9820;DHT22;4949;48.482;9.206;2023-12-28T15:03:06;11.40;90.50
9820;DHT22;4949;48.482;9.206;2023-12-28T15:08:10;11.20;90.50
9820;DHT22;4949;48.482;9.206;2023-12-28T15:13:11;11.20;90.50
9820;DHT22;4949;48.482;9.206;2023-12-28T15:18:12;11.30;90.10
9820;DHT22;4949;48.482;9.206;2023-12-28T15:23:14;11.10;90.40
9820;DHT22;4949;48.482;9.206;2023-12-28T15:28:16;11.00;90.40
9820;DHT22;4949;48.482;9.206;2023-12-28T15:33:19;11.00;90.10
9820;DHT22;4949;48.482;9.206;2023-12-28T15:38:19;11.00;90.40
9820;DHT22;4949;48.482;9.206;2023-12-28T15:43:20;11.00;90.20
9820;DHT22;4949;48.482;9.206;2023-12-28T15:48:21;11.00;90.60
9820;DHT22;4949;48.482;9.206;2023-12-28T15:53:21;10.90;90.50
9820;DHT22;4949;48.482;9.206;2023-12-28T15:58:22;10.90;90.60
9820;DHT22;4949;48.482;9.206;2023-12-28T16:03:24;10.90;90.60
9820;DHT22;4949;48.482;9.206;2023-12-28T16:08:24;11.30;90.80
9820;DHT22;4949;48.482;9.206;2023-12-28T16:13:25;10.90;90.70
9820;DHT22;4949;48.482;9.206;2023-12-28T16:18:26;11.20;91.10
9820;DHT22;4949;48.482;9.206;2023-12-28T16:23:32;10.90;90.90
9820;DHT22;4949;48.482;9.206;2023-12-28T16:28:33;10.90;91.30
9820;DHT22;4949;48.482;9.206;2023-12-28T16:33:38;10.90;91.20
9820;DHT22;4949;48.482;9.206;2023-12-28T16:38:39;10.90;91.30
9820;DHT22;4949;48.482;9.206;2023-12-28T16:43:40;10.90;91.20
9820;DHT22;4949;48.482;9.206;2023-12-28T16:48:41;10.40;91.50
9820;DHT22;4949;48.482;9.206;2023-12-28T16:53:46;10.20;91.70
9820;DHT22;4949;48.482;9.206;2023-12-28T16:58:47;9.90;92.30
9820;DHT22;4949;48.482;9.206;2023-12-28T17:03:50;9.60;92.90
9820;DHT22;4949;48.482;9.206;2023-12-28T17:08:51;9.70;93.10
9820;DHT22;4949;48.482;9.206;2023-12-28T17:13:54;9.20;93.10
9820;DHT22;4949;48.482;9.206;2023-12-28T17:18:56;9.20;93.40
9820;DHT22;4949;48.482;9.206;2023-12-28T17:23:57;9.10;93.80
9820;DHT22;4949;48.482;9.206;2023-12-28T17:29:03;9.20;94.00
9820;DHT22;4949;48.482;9.206;2023-12-28T17:34:07;9.20;94.20
9820;DHT22;4949;48.482;9.206;2023-12-28T17:39:08;9.40;94.50
9820;DHT22;4949;48.482;9.206;2023-12-28T17:44:18;9.50;94.40
9820;DHT22;4949;48.482;9.206;2023-12-28T17:49:32;9.80;95.20
9820;DHT22;4949;48.482;9.206;2023-12-28T17:54:33;9.90;95.50
9820;DHT22;4949;48.482;9.206;2023-12-28T17:59:33;10.10;95.00
9820;DHT22;4949;48.482;9.206;2023-12-28T18:04:34;10.30;94.90
9820;DHT22;4949;48.482;9.206;2023-12-28T18:09:35;10.40;94.70
9820;DHT22;4949;48.482;9.206;2023-12-28T18:14:40;10.40;94.80
9820;DHT22;4949;48.482;9.206;2023-12-28T18:19:44;10.40;95.00
9820;DHT22;4949;48.482;9.206;2023-12-28T18:24:46;10.50;95.20
9820;DHT22;4949;48.482;9.206;2023-12-28T18:29:52;10.50;95.20
9820;DHT22;4949;48.482;9.206;2023-12-28T18:34:55;10.50;95.20
9820;DHT22;4949;48.482;9.206;2023-12-28T18:39:56;10.60;95.30
9820;DHT22;4949;48.482;9.206;2023-12-28T18:44:57;10.70;95.30
9820;DHT22;4949;48.482;9.206;2023-12-28T18:49:57;10.60;95.30
9820;DHT22;4949;48.482;9.206;2023-12-28T18:54:59;11.10;95.40
9820;DHT22;4949;48.482;9.206;2023-12-28T19:00:04;10.70;95.30
9820;DHT22;4949;48.482;9.206;2023-12-28T19:05:06;10.70;95.30
9820;DHT22;4949;48.482;9.206;2023-12-28T19:10:07;10.70;95.30
9820;DHT22;4949;48.482;9.206;2023-12-28T19:15:11;10.60;95.40
9820;DHT22;4949;48.482;9.206;2023-12-28T19:20:12;10.80;95.90
9820;DHT22;4949;48.482;9.206;2023-12-28T19:25:15;10.70;95.60
9820;DHT22;4949;48.482;9.206;2023-12-28T19:30:20;10.70;95.30
9820;DHT22;4949;48.482;9.206;2023-12-28T19:35:21;10.70;95.20
9820;DHT22;4949;48.482;9.206;2023-12-28T19:40:24;10.70;95.30
9820;DHT22;4949;48.482;9.206;2023-12-28T19:45:25;10.80;95.60
9820;DHT22;4949;48.482;9.206;2023-12-28T19:50:25;10.60;95.50
9820;DHT22;4949;48.482;9.206;2023-12-28T19:55:34;11.00;95.30
9820;DHT22;4949;48.482;9.206;2023-12-28T20:00:36;10.70;94.90
9820;DHT22;4949;48.482;9.206;2023-12-28T20:05:41;10.80;94.70
9820;DHT22;4949;48.482;9.206;2023-12-28T20:10:42;10.70;95.00
9820;DHT22;4949;48.482;9.206;2023-12-28T20:15:45;10.80;94.80
9820;DHT22;4949;48.482;9.206;2023-12-28T20:20:49;10.80;95.00
9820;DHT22;4949;48.482;9.206;2023-12-28T20:25:55;10.80;95.20
9820;DHT22;4949;48.482;9.206;2023-12-28T20:30:58;10.60;95.20
9820;DHT22;4949;48.482;9.206;2023-12-28T20:35:59;11.10;95.60
9820;DHT22;4949;48.482;9.206;2023-12-28T20:41:01;10.70;95.70
9820;DHT22;4949;48.482;9.206;2023-12-28T20:46:06;10.70;95.80
9820;DHT22;4949;48.482;9.206;2023-12-28T20:51:08;10.70;95.70
9820;DHT22;4949;48.482;9.206;2023-12-28T20:56:11;10.80;95.70
9820;DHT22;4949;48.482;9.206;2023-12-28T21:01:14;10.70;95.10
9820;DHT22;4949;48.482;9.206;2023-12-28T21:06:17;10.70;94.70
9820;DHT22;4949;48.482;9.206;2023-12-28T21:11:18;10.70;94.00
9820;DHT22;4949;48.482;9.206;2023-12-28T21:16:19;10.90;94.20
9820;DHT22;4949;48.482;9.206;2023-12-28T21:21:22;10.70;93.60
9820;DHT22;4949;48.482;9.206;2023-12-28T21:26:23;10.70;93.30
9820;DHT22;4949;48.482;9.206;2023-12-28T21:31:24;10.80;93.00
9820;DHT22;4949;48.482;9.206;2023-12-28T21:36:24;10.90;92.40
9820;DHT22;4949;48.482;9.206;2023-12-28T21:41:25;11.20;92.10
9820;DHT22;4949;48.482;9.206;2023-12-28T21:46:26;10.90;92.10
9820;DHT22;4949;48.482;9.206;2023-12-28T21:51:27;10.90;92.10
9820;DHT22;4949;48.482;9.206;2023-12-28T21:56:28;10.90;92.10
9820;DHT22;4949;48.482;9.206;2023-12-28T22:01:28;11.00;91.90
9820;DHT22;4949;48.482;9.206;2023-12-28T22:06:29;11.10;91.50
9820;DHT22;4949;48.482;9.206;2023-12-28T22:11:30;11.00;91.50
9820;DHT22;4949;48.482;9.206;2023-12-28T22:16:33;11.10;91.70
9820;DHT22;4949;48.482;9.206;2023-12-28T22:21:34;11.00;91.60
9820;DHT22;4949;48.482;9.206;2023-12-28T22:26:35;11.00;91.40
9820;DHT22;4949;48.482;9.206;2023-12-28T22:31:37;11.40;91.50
9820;DHT22;4949;48.482;9.206;2023-12-28T22:36:40;11.10;91.20
9820;DHT22;4949;48.482;9.206;2023-12-28T22:41:41;11.10;91.00
9820;DHT22;4949;48.482;9.206;2023-12-28T22:46:41;11.40;91.10
9820;DHT22;4949;48.482;9.206;2023-12-28T22:51:42;11.10;91.10
9820;DHT22;4949;48.482;9.206;2023-12-28T22:56:44;11.10;91.40
9820;DHT22;4949;48.482;9.206;2023-12-28T23:01:47;11.30;91.40
9820;DHT22;4949;48.482;9.206;2023-12-28T23:06:49;11.10;91.40
9820;DHT22;4949;48.482;9.206;2023-12-28T23:11:53;11.60;91.50
9820;DHT22;4949;48.482;9.206;2023-12-28T23:16:54;11.10;91.40
9820;DHT22;4949;48.482;9.206;2023-12-28T23:21:55;11.10;91.10
9820;DHT22;4949;48.482;9.206;2023-12-28T23:26:56;11.00;91.40
9820;DHT22;4949;48.482;9.206;2023-12-28T23:31:57;11.00;91.30
9820;DHT22;4949;48.482;9.206;2023-12-28T23:36:58;11.10;91.10
9820;DHT22;4949;48.482;9.206;2023-12-28T23:41:58;11.10;91.00
9820;DHT22;4949;48.482;9.206;2023-12-28T23:46:59;11.00;90.90
9820;DHT22;4949;48.482;9.206;2023-12-28T23:52:00;11.00;90.80
9820;DHT22;4949;48.482;9.206;2023-12-28T23:57:02;11.20;90.50
